Map

Track Data

SID SEASON NUMBER BASIN SUBBASIN NAME ISO_TIME NATURE LAT LON WMO_WIND WMO_PRES WMO_AGENCY TRACK_TYPE DIST2LAND LANDFALL IFLAG USA_AGENCY USA_ATCF_ID USA_LAT USA_LON USA_RECORD USA_STATUS USA_WIND USA_PRES USA_SSHS USA_R34_NE USA_R34_SE USA_R34_SW USA_R34_NW USA_R50_NE USA_R50_SE USA_R50_SW USA_R50_NW USA_R64_NE USA_R64_SE USA_R64_SW USA_R64_NW USA_POCI USA_ROCI USA_RMW USA_EYE TOKYO_LAT TOKYO_LON TOKYO_GRADE TOKYO_WIND TOKYO_PRES TOKYO_R50_DIR TOKYO_R50_LONG TOKYO_R50_SHORT TOKYO_R30_DIR TOKYO_R30_LONG TOKYO_R30_SHORT TOKYO_LAND CMA_LAT CMA_LON CMA_CAT CMA_WIND CMA_PRES HKO_LAT HKO_LON HKO_CAT HKO_WIND HKO_PRES NEWDELHI_LAT NEWDELHI_LON NEWDELHI_GRADE NEWDELHI_WIND NEWDELHI_PRES NEWDELHI_CI NEWDELHI_DP NEWDELHI_POCI REUNION_LAT REUNION_LON REUNION_TYPE REUNION_WIND REUNION_PRES REUNION_TNUM REUNION_CI REUNION_RMW REUNION_R34_NE REUNION_R34_SE REUNION_R34_SW REUNION_R34_NW REUNION_R50_NE REUNION_R50_SE REUNION_R50_SW REUNION_R50_NW REUNION_R64_NE REUNION_R64_SE REUNION_R64_SW REUNION_R64_NW BOM_LAT BOM_LON BOM_TYPE BOM_WIND BOM_PRES BOM_TNUM BOM_CI BOM_RMW BOM_R34_NE BOM_R34_SE BOM_R34_SW BOM_R34_NW BOM_R50_NE BOM_R50_SE BOM_R50_SW BOM_R50_NW BOM_R64_NE BOM_R64_SE BOM_R64_SW BOM_R64_NW BOM_ROCI BOM_POCI BOM_EYE BOM_POS_METHOD BOM_PRES_METHOD NADI_LAT NADI_LON NADI_CAT NADI_WIND NADI_PRES WELLINGTON_LAT WELLINGTON_LON WELLINGTON_WIND WELLINGTON_PRES DS824_LAT DS824_LON DS824_STAGE DS824_WIND DS824_PRES TD9636_LAT TD9636_LON TD9636_STAGE TD9636_WIND TD9636_PRES TD9635_LAT TD9635_LON TD9635_WIND TD9635_PRES TD9635_ROCI NEUMANN_LAT NEUMANN_LON NEUMANN_CLASS NEUMANN_WIND NEUMANN_PRES MLC_LAT MLC_LON MLC_CLASS MLC_WIND MLC_PRES USA_GUST BOM_GUST BOM_GUST_PER REUNION_GUST REUNION_GUST_PER USA_SEAHGT USA_SEARAD_NE USA_SEARAD_SE USA_SEARAD_SW USA_SEARAD_NW STORM_SPEED STORM_DIR
1941250N20089 1941 53 NI BB NOT_NAMED 1941-09-07 00:00:00 TS 20.1000 89.1000 main 167 145 _________O____ -1 20.1000 89.1000 TC 30 6 319
1941250N20089 1941 53 NI BB NOT_NAMED 1941-09-07 03:00:00 TS 20.3418 88.8719 main 145 112 _________PO___ -1 20.4626 88.7579 TC 30 20.1000 89.1000 1 8 316
1941250N20089 1941 53 NI BB NOT_NAMED 1941-09-07 06:00:00 TS 20.6469 88.5451 main 111 78 _________OP___ -1 20.8000 88.4000 TC 30 20.4172 88.7627 1 9 313
1941250N20089 1941 53 NI BB NOT_NAMED 1941-09-07 09:00:00 TS 20.9445 88.1841 main 78 54 _________PP___ -1 21.0999 88.0147 TC 30 20.7373 88.4099 1 9 311
1941250N20089 1941 53 NI BB NOT_NAMED 1941-09-07 12:00:00 TS 21.2319 87.8136 main 55 0 _________OP___ -1 21.4000 87.6000 TC 30 21.0638 88.0272 1 10 310
1941250N20089 1941 53 NI BB NOT_NAMED 1941-09-07 15:00:00 TS 21.5787 87.3825 main 0 0 _________PO___ -1 21.7574 87.1650 TC 30 21.4000 87.6000 1 11 309
1941250N20089 1941 53 NI BB NOT_NAMED 1941-09-07 18:00:00 TS 21.9221 86.9110 main 0 0 _________OP___ -1 22.1000 86.7000 TC 30 21.7443 87.1221 1 11 306
1941250N20089 1941 53 NI BB NOT_NAMED 1941-09-07 21:00:00 TS 22.2355 86.3994 main 0 0 _________PP___ -1 22.3951 86.1776 TC 30 22.0758 86.6213 1 11 301
1941250N20089 1941 53 NI BB NOT_NAMED 1941-09-08 00:00:00 TS 22.4847 85.9173 main 0 0 _________OP___ -1 22.6000 85.7000 TC 30 22.3693 86.1347 1 9 297
1941250N20089 1941 53 NI BB NOT_NAMED 1941-09-08 03:00:00 TS 22.6361 85.5311 main 0 0 _________PO___ -1 22.6723 85.3621 TC 30 22.6000 85.7000 1 7 290
1941250N20089 1941 53 NI BB NOT_NAMED 1941-09-08 06:00:00 TS 22.7216 85.2251 main 0 0 _________OP___ -1 22.7000 85.1000 TC 30 22.7431 85.3501 1 6 288
1941250N20089 1941 53 NI BB NOT_NAMED 1941-09-08 09:00:00 TS 22.8121 84.9431 main 0 0 _________PP___ -1 22.8000 84.8276 TC 30 22.8243 85.0587 1 5 289
1941250N20089 1941 53 NI BB NOT_NAMED 1941-09-08 12:00:00 TS 22.8842 84.7065 main 0 0 _________OP___ -1 22.9000 84.6000 TC 30 22.8683 84.8130 1 4 287
1941250N20089 1941 53 NI BB NOT_NAMED 1941-09-08 15:00:00 TS 22.9287 84.5212 main 0 0 _________PO___ -1 22.9574 84.4424 TC 30 22.9000 84.6000 1 3 286
1941250N20089 1941 53 NI BB NOT_NAMED 1941-09-08 18:00:00 TS 22.9677 84.3923 main 0 0 _________OP___ -1 23.0000 84.3000 TC 30 22.9353 84.4846 1 2 287
1941250N20089 1941 53 NI BB NOT_NAMED 1941-09-08 21:00:00 TS 22.9972 84.2827 main 0 0 _________PP___ -1 23.0270 84.1821 TC 30 22.9674 84.3834 1 3 286
1941250N20089 1941 53 NI BB NOT_NAMED 1941-09-09 00:00:00 TS 23.0580 84.0577 main 0 0 _________OP___ -1 23.1000 83.9000 TC 30 23.0159 84.2155 1 7 287
1941250N20089 1941 53 NI BB NOT_NAMED 1941-09-09 03:00:00 TS 23.1927 83.5914 main 0 0 _________PO___ -1 23.2853 83.2829 TC 30 23.1000 83.9000 1 11 287
1941250N20089 1941 53 NI BB NOT_NAMED 1941-09-09 06:00:00 TS 23.3727 82.9029 main 0 0 _________OP___ -1 23.5000 82.5000 TC 30 23.2455 83.3059 1 14 285
1941250N20089 1941 53 NI BB NOT_NAMED 1941-09-09 09:00:00 TS 23.5405 82.1457 main 0 0 _________PP___ -1 23.6576 81.7273 TC 30 23.4234 82.5641 1 14 283
1941250N20089 1941 53 NI BB NOT_NAMED 1941-09-09 12:00:00 TS 23.7071 81.3825 main 0 0 _________OP___ -1 23.8000 81.0000 TC 30 23.6142 81.7651 1 14 284
1941250N20089 1941 53 NI BB NOT_NAMED 1941-09-09 15:00:00 TS 23.8747 80.7099 main 0 0 _________PO___ -1 23.9494 80.4198 TC 30 23.8000 81.0000 1 12 285
1941250N20089 1941 53 NI BB NOT_NAMED 1941-09-09 18:00:00 TS 24.0113 80.1589 main 0 0 _________OP___ -1 24.1000 79.9000 TC 30 23.9226 80.4179 1 10 285
1941250N20089 1941 53 NI BB NOT_NAMED 1941-09-09 21:00:00 TS 24.1358 79.6269 main 0 0 _________PP___ -1 24.2270 79.3719 TC 30 24.0446 79.8818 1 10 286
1941250N20089 1941 53 NI BB NOT_NAMED 1941-09-10 00:00:00 TS 24.2973 79.0775 main 0 0 _________OP___ -1 24.4000 78.8000 TC 30 24.1945 79.3550 1 11 290
1941250N20089 1941 53 NI BB NOT_NAMED 1941-09-10 03:00:00 TS 24.5313 78.4575 main 0 0 _________PO___ -1 24.6626 78.1149 TC 30 24.4000 78.8000 1 13 294
1941250N20089 1941 53 NI AS NOT_NAMED 1941-09-10 06:00:00 TS 24.8305 77.7624 main 0 0 _________OP___ -1 25.0000 77.4000 TC 30 24.6609 78.1247 1 14 297
1941250N20089 1941 53 NI AS NOT_NAMED 1941-09-10 09:00:00 TS 25.1757 77.0700 main 0 0 _________PP___ -1 25.3699 76.7198 TC 30 24.9815 77.4203 1 14 302
1941250N20089 1941 53 NI AS NOT_NAMED 1941-09-10 12:00:00 TS 25.5805 76.4153 main 0 0 _________OP___ -1 25.8000 76.1000 TC 30 25.3610 76.7306 1 14 308
1941250N20089 1941 53 NI AS NOT_NAMED 1941-09-10 15:00:00 TS 26.0349 75.8310 main 0 0 _________PO___ -1 26.2697 75.5620 TC 30 25.8000 76.1000 1 14 315
1941250N20089 1941 53 NI AS NOT_NAMED 1941-09-10 18:00:00 TS 26.5682 75.3170 main 0 0 _________OP___ -1 26.8000 75.1000 TC 30 26.3364 75.5340 1 15 322
1941250N20089 1941 53 NI AS NOT_NAMED 1941-09-10 21:00:00 TS 27.1796 74.8427 main 0 0 _________PP___ -1 27.4375 74.6480 TC 30 26.9217 75.0374 1 14 327
1941250N20089 1941 53 NI AS NOT_NAMED 1941-09-11 00:00:00 TS 27.7481 74.4609 main 0 0 _________OP___ -1 28.0000 74.3000 TC 30 27.4962 74.6217 1 11 330
1941250N20089 1941 53 NI AS NOT_NAMED 1941-09-11 03:00:00 TS 28.1474 74.2021 main 0 0 _________PO___ -1 28.2948 74.1042 TC 30 28.0000 74.3000 1 8 331
1941250N20089 1941 53 NI AS NOT_NAMED 1941-09-11 06:00:00 TS 28.4204 74.0374 main 0 0 _________OP___ -1 28.5000 74.0000 TC 30 28.3409 74.0748 1 6 335
1941250N20089 1941 53 NI AS NOT_NAMED 1941-09-11 09:00:00 TS 28.6969 73.9171 main 0 0 _________PP___ -1 28.7850 73.8924 TC 30 28.6088 73.9417 1 6 342
1941250N20089 1941 53 NI AS NOT_NAMED 1941-09-11 12:00:00 TS 28.9737 73.8315 main 0 0 _________OP___ -1 29.1000 73.8000 TC 30 28.8474 73.8630 1 6 345
1941250N20089 1941 53 NI AS NOT_NAMED 1941-09-11 15:00:00 TS 29.2712 73.7500 main 0 0 _________PO___ -1 29.4425 73.7000 TC 30 29.1000 73.8000 1 6 347
1941250N20089 1941 53 NI AS NOT_NAMED 1941-09-11 18:00:00 TS 29.5715 73.6692 main 0 0 _________OP___ -1 29.8000 73.6000 TC 30 29.4001 73.7212 1 7 346
1941250N20089 1941 53 NI AS NOT_NAMED 1941-09-11 21:00:00 TS 29.9068 73.5748 main 0 0 _________PP___ -1 30.1525 73.5001 TC 30 29.7431 73.6245 1 7 346
1941250N20089 1941 53 NI AS NOT_NAMED 1941-09-12 00:00:00 TS 30.2430 73.4771 main 0 0 _________OP___ -1 30.5000 73.4000 TC 30 30.1145 73.5156 1 6 345
1941250N20089 1941 53 NI AS NOT_NAMED 1941-09-12 03:00:00 NR 30.5000 73.4000 main 0 __________O___ -1 TC 30.5000 73.4000 1 5 346

About IBTrACS Database

This database is a web-friendly format of International Best Track Archive for Climate Stewardship (IBTrACS), a global best track data archive curated by NOAA dating back to 1842.

Updated: 2021-12-03